Time;durP1;ratioP1;P1;durP2;ratioP2;P2;SDS_P1;SDS_P2;PMS_P1;PMS_P2;Temp;Humidity;BMP_temperature;BMP_pressure;BME280_temperature;BME280_humidity;BME280_pressure;Samples;Min_cycle;Max_cycle;Signal;HPM_P1;HPM_P2
2021/04/30 00:00:21;;;;;;;7.92;6.10;;;;;;;13.41;58.27;100254.20;1752421;80;21142;-47
2021/04/30 00:02:49;;;;;;;8.73;6.62;;;;;;;13.42;58.31;100252.38;1752312;80;21602;-44
2021/04/30 00:05:16;;;;;;;9.75;6.28;;;;;;;13.44;58.36;100249.11;1753125;80;21146;-43
2021/04/30 00:07:46;;;;;;;5.87;5.25;;;;;;;13.44;58.39;100247.77;1754375;80;21164;-45
2021/04/30 00:10:13;;;;;;;6.12;5.50;;;;;;;13.44;58.40;100246.91;1716760;82;21199;-44
2021/04/30 00:12:41;;;;;;;8.00;6.03;;;;;;;13.45;58.46;100250.80;1752925;80;21157;-45
2021/04/30 00:15:10;;;;;;;5.75;5.15;;;;;;;13.47;58.47;100254.22;1751968;80;21538;-46
2021/04/30 00:17:38;;;;;;;7.15;6.35;;;;;;;13.47;58.44;100254.72;1752507;80;21169;-44
2021/04/30 00:20:07;;;;;;;6.10;5.35;;;;;;;13.48;58.54;100248.38;1753901;80;21145;-44
2021/04/30 00:22:35;;;;;;;7.30;5.53;;;;;;;13.47;58.50;100246.19;1718212;82;21143;-44
2021/04/30 00:25:04;;;;;;;6.83;5.65;;;;;;;13.47;58.61;100242.17;1754107;80;21173;-44
2021/04/30 00:27:31;;;;;;;6.40;5.80;;;;;;;13.48;58.58;100247.04;1753980;80;21283;-44
2021/04/30 00:29:59;;;;;;;6.53;5.60;;;;;;;13.47;58.61;100240.83;1753678;80;21141;-43
2021/04/30 00:32:28;;;;;;;6.60;5.95;;;;;;;13.47;58.57;100242.17;1754084;80;21137;-43
2021/04/30 00:34:56;;;;;;;6.30;5.67;;;;;;;13.47;58.53;100244.85;1753023;80;21110;-43
2021/04/30 00:37:23;;;;;;;5.62;5.05;;;;;;;13.46;58.60;100239.63;1753682;80;21162;-43
2021/04/30 00:39:51;;;;;;;6.22;5.62;;;;;;;13.45;58.63;100245.94;1750900;80;21137;-43
2021/04/30 00:42:19;;;;;;;5.85;5.25;;;;;;;13.44;58.68;100246.91;1754343;80;21141;-44
2021/04/30 00:44:47;;;;;;;7.55;6.75;;;;;;;13.44;58.76;100249.59;1754809;80;21577;-42
2021/04/30 00:47:30;;;;;;;7.28;5.53;;;;;;;13.45;58.89;100247.27;1753170;80;21185;-42
2021/04/30 00:50:05;;;;;;;7.03;5.97;;;;;;;13.45;58.85;100242.77;1717206;82;21163;-44
2021/04/30 00:52:32;;;;;;;7.35;5.65;;;;;;;13.46;58.79;100240.48;1752803;80;21153;-45
2021/04/30 00:55:01;;;;;;;6.92;6.03;;;;;;;13.45;58.73;100237.90;1755407;80;21102;-44
2021/04/30 00:57:29;;;;;;;7.03;5.58;;;;;;;13.44;58.77;100237.05;1747986;80;21696;-43
2021/04/30 00:59:58;;;;;;;8.88;6.12;;;;;;;13.45;58.81;100243.25;1742523;80;21145;-44
2021/04/30 01:02:28;;;;;;;7.15;6.20;;;;;;;13.43;58.74;100235.35;1743188;80;21158;-44
2021/04/30 01:04:57;;;;;;;7.55;5.80;;;;;;;13.43;58.73;100235.35;1748803;80;21156;-43
2021/04/30 01:07:25;;;;;;;6.83;5.80;;;;;;;13.43;58.77;100234.02;1745039;80;21137;-44
2021/04/30 01:09:55;;;;;;;6.28;5.67;;;;;;;13.43;58.79;100235.35;1743839;80;21153;-45
2021/04/30 01:12:23;;;;;;;6.22;5.30;;;;;;;13.42;58.75;100226.93;1745034;80;21177;-46
2021/04/30 01:14:50;;;;;;;6.70;4.95;;;;;;;13.41;58.82;100230.10;1744436;80;21146;-43
2021/04/30 01:17:18;;;;;;;6.58;5.97;;;;;;;13.41;58.81;100226.57;1741110;80;21126;-44
2021/04/30 01:19:47;;;;;;;7.62;5.72;;;;;;;13.41;58.76;100228.77;1745286;80;21600;-41
2021/04/30 01:22:34;;;;;;;10.15;6.62;;;;;;;13.41;58.75;100223.41;1744421;80;21114;-44
2021/04/30 01:25:04;;;;;;;8.08;5.50;;;;;;;13.41;58.71;100215.37;1743950;80;21724;-43
2021/04/30 01:27:31;;;;;;;7.42;5.42;;;;;;;13.40;58.69;100214.98;1744838;80;22020;-46
2021/04/30 01:29:59;;;;;;;8.68;6.17;;;;;;;13.40;58.79;100215.47;1747141;80;21170;-47
2021/04/30 01:32:27;;;;;;;7.28;6.10;;;;;;;13.39;58.79;100222.66;1742992;80;21127;-44
2021/04/30 01:34:55;;;;;;;6.20;4.85;;;;;;;13.38;58.79;100220.08;1743667;80;21571;-45
2021/04/30 01:37:25;;;;;;;9.38;6.37;;;;;;;13.38;58.86;100208.03;1744646;80;21142;-44
2021/04/30 01:39:53;;;;;;;6.50;5.58;;;;;;;13.38;58.90;100206.69;1743666;80;21137;-45
2021/04/30 01:42:21;;;;;;;7.17;5.70;;;;;;;13.35;58.86;100204.25;1739262;80;21500;-44
2021/04/30 01:44:49;;;;;;;10.10;5.97;;;;;;;13.34;58.86;100210.09;1742861;80;21178;-43
2021/04/30 01:47:17;;;;;;;8.13;6.03;;;;;;;13.34;58.86;100199.87;1743487;80;21137;-43
2021/04/30 01:49:46;;;;;;;6.15;5.30;;;;;;;13.33;58.81;100195.47;1741025;80;21506;-45
2021/04/30 01:52:14;;;;;;;7.15;5.67;;;;;;;13.30;58.81;100195.21;1742380;80;21157;-44
2021/04/30 01:54:48;;;;;;;6.40;5.12;;;;;;;13.27;58.87;100203.48;1750152;80;21474;-45
2021/04/30 01:57:17;;;;;;;6.15;5.35;;;;;;;13.26;58.95;100207.11;1753550;80;21137;-44
2021/04/30 01:59:44;;;;;;;7.37;5.97;;;;;;;13.25;59.02;100197.84;1748055;80;21185;-44
2021/04/30 02:02:12;;;;;;;9.60;5.87;;;;;;;13.24;59.00;100193.46;1757949;80;21557;-44
2021/04/30 02:04:40;;;;;;;6.03;4.97;;;;;;;13.21;58.94;100191.86;1757057;80;21110;-43
2021/04/30 02:07:08;;;;;;;6.50;5.78;;;;;;;13.19;59.03;100185.77;1758391;80;21137;-44
2021/04/30 02:09:36;;;;;;;6.87;5.42;;;;;;;13.19;59.11;100183.09;1759881;80;21562;-41
2021/04/30 02:12:04;;;;;;;6.75;5.92;;;;;;;13.18;59.14;100184.91;1757967;80;21153;-46
2021/04/30 02:14:33;;;;;;;6.35;5.75;;;;;;;13.16;59.18;100183.32;1758001;80;21149;-44
2021/04/30 02:17:00;;;;;;;5.30;4.75;;;;;;;13.15;59.24;100177.12;1759597;80;21463;-44
2021/04/30 02:19:28;;;;;;;7.35;5.40;;;;;;;13.15;59.36;100179.80;1757924;80;21617;-44
2021/04/30 02:21:57;;;;;;;5.62;5.08;;;;;;;13.13;59.32;100179.05;1755633;80;21147;-44
2021/04/30 02:24:25;;;;;;;6.22;5.08;;;;;;;13.14;59.36;100182.08;1716687;82;21147;-43
2021/04/30 02:26:52;;;;;;;6.60;5.95;;;;;;;13.14;59.21;100171.86;1698202;83;21153;-43
2021/04/30 02:29:20;;;;;;;6.58;5.00;;;;;;;13.12;59.24;100173.30;1683299;83;21525;-44
2021/04/30 02:31:48;;;;;;;6.85;5.53;;;;;;;13.13;59.28;100178.20;1708890;82;21131;-45
2021/04/30 02:34:16;;;;;;;7.75;6.17;;;;;;;13.12;59.31;100180.00;1722548;82;21599;-43
2021/04/30 02:36:43;;;;;;;6.33;5.72;;;;;;;13.12;59.27;100182.67;1720024;82;21151;-44
2021/04/30 02:39:11;;;;;;;6.40;5.80;;;;;;;13.11;59.26;100185.48;1723143;82;21190;-45
2021/04/30 02:41:38;;;;;;;7.28;5.65;;;;;;;13.11;59.33;100176.11;1720467;82;21142;-46
2021/04/30 02:44:06;;;;;;;5.92;5.33;;;;;;;13.09;59.33;100178.05;1721513;82;21155;-47
2021/04/30 02:46:34;;;;;;;6.95;5.65;;;;;;;13.07;59.36;100181.31;1722661;82;21728;-46
2021/04/30 02:49:04;;;;;;;7.72;5.65;;;;;;;13.08;59.42;100178.99;1721019;83;21596;-43
2021/04/30 02:51:32;;;;;;;6.30;5.67;;;;;;;13.06;59.52;100174.27;1718044;82;21165;-47
2021/04/30 02:54:00;;;;;;;7.17;6.10;;;;;;;13.04;59.57;100175.70;1723919;82;21123;-46
2021/04/30 02:56:28;;;;;;;6.90;5.92;;;;;;;13.03;59.57;100180.69;1720313;82;21159;-45
2021/04/30 02:58:56;;;;;;;6.08;5.30;;;;;;;13.02;59.69;100182.98;1738510;80;21146;-45
2021/04/30 03:01:23;;;;;;;6.08;5.47;;;;;;;13.01;59.77;100187.13;1690647;82;21160;-47
2021/04/30 03:03:51;;;;;;;7.55;6.33;;;;;;;13.00;59.76;100184.91;1744777;80;21174;-46
2021/04/30 03:06:18;;;;;;;6.10;5.50;;;;;;;12.99;59.83;100182.72;1744267;80;21146;-45
2021/04/30 03:08:52;;;;;;;5.92;5.33;;;;;;;12.99;59.87;100184.55;1746019;80;21130;-43
2021/04/30 03:11:16;;;;;;;5.90;5.30;;;;;;;12.98;59.91;100195.75;1745639;80;21585;-43
2021/04/30 03:13:43;;;;;;;6.03;5.45;;;;;;;12.96;60.01;100186.97;1745039;80;22218;-44
2021/04/30 03:16:12;;;;;;;6.25;5.28;;;;;;;12.95;59.97;100195.09;1744531;80;21157;-43
2021/04/30 03:18:40;;;;;;;8.10;6.33;;;;;;;12.94;60.17;100182.70;1751961;80;21138;-46
2021/04/30 03:21:08;;;;;;;8.10;6.83;;;;;;;12.92;60.24;100181.95;1734571;80;21138;-45
2021/04/30 03:23:35;;;;;;;7.58;5.80;;;;;;;12.92;60.30;100184.62;1713115;82;21998;-43
2021/04/30 03:26:03;;;;;;;7.05;6.35;;;;;;;12.89;60.36;100189.72;1743288;80;21146;-41
2021/04/30 03:28:31;;;;;;;6.35;5.75;;;;;;;12.88;60.42;100192.52;1745322;80;21166;-47
2021/04/30 03:30:58;;;;;;;6.75;6.10;;;;;;;12.86;60.55;100198.46;1744083;80;21181;-45
2021/04/30 03:33:26;;;;;;;9.28;6.37;;;;;;;12.85;60.75;100195.39;1762402;80;21114;-45
2021/04/30 03:35:54;;;;;;;8.73;6.35;;;;;;;12.82;60.75;100192.45;1743151;80;21603;-45
2021/04/30 03:38:21;;;;;;;6.90;5.85;;;;;;;12.81;60.79;100193.44;1743782;80;21145;-46
2021/04/30 03:40:49;;;;;;;8.05;6.50;;;;;;;12.77;60.81;100190.14;1746658;80;21141;-46
2021/04/30 03:43:17;;;;;;;7.35;6.00;;;;;;;12.75;60.93;100192.52;1744008;80;21138;-46
2021/04/30 03:45:45;;;;;;;6.53;5.85;;;;;;;12.74;61.07;100189.48;1743127;80;21102;-45
2021/04/30 03:48:13;;;;;;;8.25;6.67;;;;;;;12.75;61.21;100193.41;1733159;80;21153;-44
2021/04/30 03:50:40;;;;;;;6.42;5.83;;;;;;;12.76;61.11;100190.23;1741872;80;21182;-46
2021/04/30 03:53:08;;;;;;;8.75;6.40;;;;;;;12.76;61.14;100185.73;1744364;80;21541;-46
2021/04/30 03:55:36;;;;;;;6.37;5.35;;;;;;;12.79;61.24;100194.03;1743496;80;21555;-44
2021/04/30 03:58:04;;;;;;;7.50;6.35;;;;;;;12.79;61.25;100190.02;1745638;80;21149;-44
2021/04/30 04:00:31;;;;;;;7.00;6.30;;;;;;;12.79;61.08;100188.67;1741610;80;21163;-43
2021/04/30 04:02:59;;;;;;;7.55;5.83;;;;;;;12.78;61.00;100189.16;1746980;80;21565;-45
2021/04/30 04:05:27;;;;;;;6.05;5.37;;;;;;;12.77;61.04;100187.47;1742284;80;21143;-44
2021/04/30 04:07:54;;;;;;;7.97;5.37;;;;;;;12.78;60.99;100190.98;1743150;80;21138;-44
2021/04/30 04:10:22;;;;;;;6.12;5.53;;;;;;;12.79;61.06;100191.34;1743364;80;21135;-45
2021/04/30 04:12:50;;;;;;;6.25;5.65;;;;;;;12.80;61.01;100198.43;1746515;80;21156;-46
2021/04/30 04:15:17;;;;;;;7.70;5.08;;;;;;;12.83;60.89;100196.02;1745225;80;21174;-46
2021/04/30 04:17:45;;;;;;;5.62;5.03;;;;;;;12.86;60.84;100195.78;1737444;80;21150;-45
2021/04/30 04:20:15;;;;;;;6.30;5.00;;;;;;;12.87;60.64;100189.45;1743100;80;21610;-45
2021/04/30 04:22:42;;;;;;;5.00;4.50;;;;;;;12.88;60.62;100189.84;1744747;81;21144;-44
2021/04/30 04:25:10;;;;;;;7.20;5.08;;;;;;;12.90;60.61;100186.55;1744435;80;21156;-45
2021/04/30 04:27:37;;;;;;;8.00;4.85;;;;;;;12.89;60.48;100180.34;1746238;80;21133;-44
2021/04/30 04:30:08;;;;;;;5.78;4.30;;;;;;;12.91;60.61;100183.77;1709833;82;21160;-45
2021/04/30 04:32:35;;;;;;;6.97;5.25;;;;;;;12.92;60.41;100185.95;1744681;80;21532;-46
2021/04/30 04:35:03;;;;;;;6.47;4.67;;;;;;;12.94;60.39;100182.70;1742975;80;21150;-46
2021/04/30 04:37:31;;;;;;;5.65;4.78;;;;;;;12.96;60.25;100172.25;1744950;80;21142;-46
2021/04/30 04:39:58;;;;;;;7.62;4.55;;;;;;;12.97;60.17;100169.93;1744651;80;21147;-45
2021/04/30 04:42:26;;;;;;;5.53;4.58;;;;;;;12.99;59.96;100162.65;1749344;80;21141;-40
2021/04/30 04:44:54;;;;;;;4.83;3.95;;;;;;;13.01;59.90;100164.38;1744758;80;21166;-45
2021/04/30 04:47:22;;;;;;;6.60;5.17;;;;;;;13.04;59.90;100173.02;1745339;80;21138;-42
2021/04/30 04:49:51;;;;;;;5.80;4.85;;;;;;;13.07;59.57;100166.09;1724132;80;21676;-43
2021/04/30 04:52:19;;;;;;;4.80;4.22;;;;;;;13.08;59.45;100166.48;1746944;80;21111;-43
2021/04/30 04:54:46;;;;;;;6.58;4.55;;;;;;;13.11;59.44;100164.91;1745896;80;21190;-45
2021/04/30 04:57:14;;;;;;;5.42;4.05;;;;;;;13.12;59.42;100162.59;1745857;80;21201;-46
2021/04/30 04:59:42;;;;;;;5.78;3.47;;;;;;;13.15;59.25;100164.19;1751711;80;21141;-44
2021/04/30 05:02:10;;;;;;;5.22;4.58;;;;;;;13.17;59.25;100157.75;1750708;80;21609;-46
2021/04/30 05:04:39;;;;;;;4.28;3.58;;;;;;;13.19;58.83;100153.14;1751758;80;21382;-44
2021/04/30 05:07:06;;;;;;;6.50;3.77;;;;;;;13.20;58.70;100152.20;1746288;80;21145;-44
2021/04/30 05:09:34;;;;;;;4.90;4.10;;;;;;;13.24;58.75;100161.33;1746477;80;21136;-44
2021/04/30 05:12:02;;;;;;;9.40;4.87;;;;;;;13.25;58.61;100163.88;1750729;80;21141;-45
2021/04/30 05:14:31;;;;;;;7.05;4.35;;;;;;;13.27;58.47;100155.28;1750651;80;21137;-45
2021/04/30 05:17:00;;;;;;;4.80;3.70;;;;;;;13.30;58.42;100163.57;1749838;81;21642;-46
2021/04/30 05:19:27;;;;;;;4.33;3.47;;;;;;;13.32;58.30;100163.83;1751899;81;21161;-47
2021/04/30 05:21:56;;;;;;;6.72;3.90;;;;;;;13.35;58.25;100158.23;1749828;80;21146;-44
2021/04/30 05:24:24;;;;;;;5.33;3.77;;;;;;;13.40;58.02;100159.23;1715056;81;21110;-46
2021/04/30 05:26:52;;;;;;;4.22;3.65;;;;;;;13.42;57.55;100157.30;1752047;80;21153;-44
2021/04/30 05:29:20;;;;;;;5.42;3.50;;;;;;;13.44;57.56;100155.36;1751446;80;21146;-43
2021/04/30 05:31:48;;;;;;;6.35;4.62;;;;;;;13.46;57.61;100143.20;1751097;80;21848;-45
2021/04/30 05:34:18;;;;;;;4.00;3.27;;;;;;;13.49;57.48;100149.17;1748808;80;21110;-43
2021/04/30 05:36:46;;;;;;;6.20;4.00;;;;;;;13.52;57.35;100142.73;1752155;80;21173;-44
2021/04/30 05:39:14;;;;;;;5.55;3.10;;;;;;;13.56;57.08;100144.22;1750528;80;21150;-40
2021/04/30 05:41:41;;;;;;;5.67;3.65;;;;;;;13.59;57.24;100144.82;1748809;81;21169;-42
2021/04/30 05:44:09;;;;;;;5.75;3.62;;;;;;;13.64;57.47;100145.33;1750188;81;21150;-44
2021/04/30 05:46:36;;;;;;;5.97;4.03;;;;;;;13.71;57.32;100137.68;1746687;80;21153;-46
2021/04/30 05:49:04;;;;;;;7.42;4.65;;;;;;;13.76;57.38;100145.37;1750641;80;21475;-44
2021/04/30 05:51:32;;;;;;;10.08;4.47;;;;;;;13.80;57.52;100140.12;1751237;80;21977;-51
2021/04/30 05:54:01;;;;;;;5.40;3.40;;;;;;;13.85;57.43;100136.59;1747775;80;21142;-48
2021/04/30 05:56:30;;;;;;;5.72;4.03;;;;;;;13.89;57.52;100134.06;1751704;80;21137;-48
2021/04/30 05:58:58;;;;;;;5.30;3.45;;;;;;;13.94;57.60;100137.73;1746008;80;21442;-51
2021/04/30 06:01:26;;;;;;;4.90;3.85;;;;;;;13.99;57.56;100136.88;1748483;80;21582;-50
2021/04/30 06:03:53;;;;;;;6.42;3.80;;;;;;;14.04;57.63;100132.86;1743739;80;21558;-51
2021/04/30 06:06:21;;;;;;;7.42;3.83;;;;;;;14.12;58.14;100140.30;1741990;80;21169;-49
2021/04/30 06:08:49;;;;;;;5.65;4.25;;;;;;;14.18;58.22;100134.94;1741141;80;21146;-51
2021/04/30 06:11:16;;;;;;;7.92;4.70;;;;;;;14.26;58.29;100135.17;1747459;81;21120;-49
2021/04/30 06:13:44;;;;;;;5.58;4.25;;;;;;;14.31;58.21;100130.30;1748631;80;21169;-47
2021/04/30 06:16:12;;;;;;;4.83;4.28;;;;;;;14.38;58.32;100126.16;1709186;82;21202;-47
2021/04/30 06:18:39;;;;;;;5.87;3.77;;;;;;;14.47;58.29;100131.29;1745628;80;21137;-47
2021/04/30 06:21:08;;;;;;;5.03;4.10;;;;;;;14.53;58.38;100125.91;1741899;80;21166;-47
2021/04/30 06:23:35;;;;;;;5.83;5.08;;;;;;;14.59;58.42;100127.66;1744025;80;21133;-48
2021/04/30 06:26:04;;;;;;;8.58;4.80;;;;;;;14.64;58.57;100132.16;1746372;80;21168;-45
2021/04/30 06:28:31;;;;;;;5.30;4.05;;;;;;;14.70;58.41;100125.44;1746492;80;21165;-46
2021/04/30 06:30:59;;;;;;;5.95;4.30;;;;;;;14.78;58.44;100124.31;1743383;80;21159;-46
2021/04/30 06:33:27;;;;;;;6.78;3.98;;;;;;;14.84;58.54;100124.30;1741622;80;21150;-46
2021/04/30 06:35:54;;;;;;;5.40;4.30;;;;;;;14.90;58.57;100126.49;1742986;80;21138;-46
2021/04/30 06:38:23;;;;;;;5.47;3.55;;;;;;;14.96;58.42;100119.27;1746434;80;21131;-47
2021/04/30 06:40:51;;;;;;;6.90;4.30;;;;;;;15.03;58.42;100118.28;1744538;80;21851;-46
2021/04/30 06:43:19;;;;;;;4.75;3.98;;;;;;;15.10;58.22;100120.83;1744889;80;21145;-45
2021/04/30 06:45:47;;;;;;;6.00;4.20;;;;;;;15.16;58.61;100118.95;1744835;80;21170;-45
2021/04/30 06:48:14;;;;;;;5.80;4.05;;;;;;;15.24;58.46;100122.34;1745325;80;21137;-45
2021/04/30 06:50:43;;;;;;;5.80;4.25;;;;;;;15.27;58.57;100120.27;1739601;80;21175;-46
2021/04/30 06:53:10;;;;;;;4.95;3.87;;;;;;;15.32;58.70;100122.55;1747621;80;21153;-46
2021/04/30 06:55:39;;;;;;;6.25;4.40;;;;;;;15.39;58.62;100126.92;1742114;80;21178;-47
2021/04/30 06:58:06;;;;;;;6.95;4.25;;;;;;;15.45;58.46;100129.95;1744463;80;21162;-45
2021/04/30 07:00:34;;;;;;;7.62;4.15;;;;;;;15.51;58.40;100125.89;1706322;82;21126;-46
2021/04/30 07:03:02;;;;;;;5.60;3.80;;;;;;;15.56;58.20;100134.41;1702500;82;21141;-46
2021/04/30 07:05:29;;;;;;;5.55;3.27;;;;;;;15.61;57.76;100130.00;1708188;82;21171;-45
2021/04/30 07:08:01;;;;;;;3.58;3.20;;;;;;;15.67;57.93;100127.63;1748141;80;21595;-46
2021/04/30 07:10:30;;;;;;;3.67;3.15;;;;;;;15.73;57.30;100128.49;1749939;80;21569;-46
2021/04/30 07:12:58;;;;;;;6.00;3.58;;;;;;;15.79;56.97;100125.27;1745873;80;21150;-46
2021/04/30 07:15:26;;;;;;;4.97;2.62;;;;;;;15.84;56.42;100125.37;1743439;80;21125;-47
2021/04/30 07:17:54;;;;;;;4.47;3.40;;;;;;;15.84;56.19;100119.50;1738208;80;22155;-46
2021/04/30 07:20:22;;;;;;;4.28;3.22;;;;;;;15.89;56.06;100115.08;1744258;80;21476;-46
2021/04/30 07:22:52;;;;;;;4.80;3.12;;;;;;;15.95;55.40;100113.19;1741307;80;21578;-45
2021/04/30 07:25:19;;;;;;;4.83;2.90;;;;;;;16.00;54.61;100107.79;1742979;80;21161;-45
2021/04/30 07:27:47;;;;;;;4.10;2.72;;;;;;;16.06;54.56;100098.83;1745539;80;21180;-45
2021/04/30 07:30:16;;;;;;;5.67;3.17;;;;;;;16.14;54.32;100106.57;1706282;82;21148;-45
2021/04/30 07:32:44;;;;;;;5.55;2.62;;;;;;;16.24;53.89;100101.23;1743938;80;21138;-46
2021/04/30 07:35:14;;;;;;;4.45;2.87;;;;;;;16.32;53.60;100100.56;1742023;80;21498;-46
2021/04/30 07:37:41;;;;;;;9.80;3.27;;;;;;;16.40;52.69;100098.03;1742460;80;21126;-45
2021/04/30 07:40:10;;;;;;;4.33;2.75;;;;;;;16.46;52.64;100105.58;1739922;80;21146;-45
2021/04/30 07:42:38;;;;;;;4.62;3.12;;;;;;;16.53;51.95;100104.05;1745498;80;21142;-46
2021/04/30 07:45:07;;;;;;;4.55;2.90;;;;;;;16.58;51.29;100090.16;1710083;83;21572;-47
2021/04/30 07:47:35;;;;;;;3.98;3.22;;;;;;;16.61;51.17;100088.05;1707553;82;21134;-46
2021/04/30 07:50:05;;;;;;;4.20;2.58;;;;;;;16.68;51.23;100088.84;1706509;82;21219;-45
2021/04/30 07:52:32;;;;;;;4.35;2.67;;;;;;;16.74;50.73;100083.76;1686282;83;21155;-46
2021/04/30 07:55:02;;;;;;;5.22;2.90;;;;;;;16.78;50.82;100085.70;1708699;83;21175;-46
2021/04/30 07:57:30;;;;;;;2.70;2.50;;;;;;;16.83;50.91;100087.01;1744702;80;21611;-46
2021/04/30 07:59:58;;;;;;;4.62;2.72;;;;;;;16.90;50.30;100079.20;1746021;80;21093;-46
2021/04/30 08:02:26;;;;;;;4.53;3.33;;;;;;;16.97;50.38;100087.08;1746120;80;21577;-47
2021/04/30 08:04:53;;;;;;;4.12;2.72;;;;;;;17.04;50.47;100080.64;1739414;80;21171;-46
2021/04/30 08:07:21;;;;;;;4.80;3.10;;;;;;;17.12;50.32;100078.59;1750593;80;21459;-45
2021/04/30 08:09:53;;;;;;;5.53;3.37;;;;;;;17.19;50.12;100073.84;1746448;80;21186;-45
2021/04/30 08:12:19;;;;;;;3.17;2.52;;;;;;;17.25;49.99;100075.95;1745210;80;21484;-46
2021/04/30 08:14:47;;;;;;;8.93;3.12;;;;;;;17.32;49.69;100069.52;1745097;80;21170;-46
2021/04/30 08:17:15;;;;;;;4.75;2.90;;;;;;;17.37;49.55;100064.54;1746064;80;21138;-52
2021/04/30 08:19:43;;;;;;;6.00;2.95;;;;;;;17.42;49.44;100056.03;1742745;80;21678;-48
2021/04/30 08:22:11;;;;;;;4.28;2.90;;;;;;;17.47;49.32;100059.14;1749074;80;21192;-47
2021/04/30 08:24:38;;;;;;;6.05;2.75;;;;;;;17.51;49.19;100053.33;1741430;80;21116;-49
2021/04/30 08:27:06;;;;;;;5.62;3.12;;;;;;;17.55;48.83;100053.87;1743675;80;21142;-50
2021/04/30 08:29:35;;;;;;;5.08;2.92;;;;;;;17.59;48.88;100052.59;1746135;80;21134;-47
2021/04/30 08:32:04;;;;;;;4.95;3.22;;;;;;;17.65;49.15;100055.20;1743932;80;21154;-47
2021/04/30 08:34:32;;;;;;;6.05;2.92;;;;;;;17.70;48.96;100047.53;1748293;80;21106;-46
2021/04/30 08:37:01;;;;;;;5.58;2.75;;;;;;;17.74;48.07;100050.30;1741627;80;21133;-44
2021/04/30 08:39:30;;;;;;;4.40;2.92;;;;;;;17.75;48.37;100037.16;1745593;80;21158;-46
2021/04/30 08:41:57;;;;;;;4.87;2.98;;;;;;;17.79;48.19;100043.97;1744936;80;21531;-48
2021/04/30 08:44:25;;;;;;;3.40;2.87;;;;;;;17.83;47.82;100044.55;1745262;80;21641;-47
2021/04/30 08:46:53;;;;;;;3.37;2.58;;;;;;;17.85;48.35;100034.47;1744345;80;21649;-47
2021/04/30 08:49:21;;;;;;;4.80;2.80;;;;;;;17.90;47.93;100033.52;1748822;80;21672;-49
2021/04/30 08:51:49;;;;;;;5.70;2.90;;;;;;;17.93;47.55;100032.72;1752395;80;21203;-47
2021/04/30 08:54:17;;;;;;;4.87;3.27;;;;;;;17.97;47.97;100027.89;1744904;80;21602;-48
2021/04/30 08:56:46;;;;;;;3.10;2.40;;;;;;;18.02;47.48;100026.11;1745512;80;21551;-47
2021/04/30 08:59:14;;;;;;;6.42;2.45;;;;;;;18.05;47.78;100031.20;1744194;80;21169;-48
2021/04/30 09:01:43;;;;;;;4.53;3.10;;;;;;;18.10;47.95;100030.25;1744734;80;21586;-48
2021/04/30 09:04:11;;;;;;;5.12;2.50;;;;;;;18.16;47.30;100022.39;1743590;80;21461;-48
2021/04/30 09:06:41;;;;;;;3.58;2.77;;;;;;;18.20;47.21;100020.26;1745133;80;21218;-46
2021/04/30 09:09:14;;;;;;;6.85;2.70;;;;;;;18.26;47.64;100022.85;1748862;80;21774;-51
2021/04/30 09:11:45;;;;;;;5.92;3.10;;;;;;;18.34;47.45;100026.98;1746319;80;21174;-48
2021/04/30 09:14:33;;;;;;;5.10;2.10;;;;;;;18.41;47.32;100019.15;1754015;80;21560;-47
2021/04/30 09:17:15;;;;;;;4.58;2.77;;;;;;;18.46;47.57;100028.98;1752755;80;21181;-47
2021/04/30 09:19:47;;;;;;;2.92;2.27;;;;;;;18.50;47.61;100015.05;1747510;80;21124;-46
2021/04/30 09:22:24;;;;;;;3.37;2.65;;;;;;;18.56;47.66;100016.28;1707342;82;21191;-46
2021/04/30 09:25:05;;;;;;;3.83;2.25;;;;;;;18.62;47.41;100008.06;1714380;82;21148;-44
2021/04/30 09:27:41;;;;;;;3.95;2.30;;;;;;;18.69;46.96;100009.99;1713844;82;21171;-44
2021/04/30 09:30:30;;;;;;;3.98;2.45;;;;;;;18.72;46.93;99997.56;1713151;82;21553;-45
2021/04/30 09:33:15;;;;;;;5.92;2.67;;;;;;;18.76;47.47;100001.66;1685130;83;21198;-45
2021/04/30 09:35:49;;;;;;;3.00;2.50;;;;;;;18.83;47.20;100000.56;1689806;83;21151;-45
2021/04/30 09:38:34;;;;;;;6.85;2.85;;;;;;;18.87;46.69;100001.92;1690807;83;21206;-44
2021/04/30 09:41:09;;;;;;;6.72;2.77;;;;;;;18.89;46.14;99996.38;1713740;82;21116;-44
2021/04/30 09:43:49;;;;;;;3.80;2.35;;;;;;;18.87;45.98;99999.73;1718112;82;21144;-45
2021/04/30 09:46:32;;;;;;;5.30;3.30;;;;;;;18.86;46.90;99994.84;1689260;83;21159;-45
2021/04/30 09:49:08;;;;;;;4.70;3.10;;;;;;;18.89;46.68;99994.52;1714240;82;21125;-50
2021/04/30 09:51:51;;;;;;;8.90;3.45;;;;;;;18.91;46.52;99995.22;1718239;82;21212;-44
2021/04/30 09:54:26;;;;;;;5.00;2.75;;;;;;;18.95;46.89;99997.97;1688174;83;21123;-45
2021/04/30 09:57:23;;;;;;;4.33;2.65;;;;;;;19.01;47.26;99989.73;1715112;82;21151;-47
2021/04/30 10:00:00;;;;;;;5.25;2.60;;;;;;;19.07;47.15;99990.45;1712672;82;21157;-45
2021/04/30 10:02:32;;;;;;;5.30;2.42;;;;;;;19.15;47.03;99989.67;1715697;82;21594;-50
2021/04/30 10:05:14;;;;;;;3.77;2.50;;;;;;;19.19;47.14;99995.96;1716113;82;21181;-45
2021/04/30 10:07:44;;;;;;;4.47;2.55;;;;;;;19.24;47.12;99990.94;1710744;82;21122;-42
2021/04/30 10:10:20;;;;;;;6.22;2.27;;;;;;;19.30;47.13;99988.60;1707852;82;21275;-47
2021/04/30 10:12:58;;;;;;;6.40;3.58;;;;;;;19.34;47.08;99977.32;1712178;82;21154;-46
2021/04/30 10:15:25;;;;;;;4.72;3.55;;;;;;;19.39;47.05;99974.15;1709731;82;21149;-45
2021/04/30 10:17:57;;;;;;;4.83;3.00;;;;;;;19.43;46.51;99968.78;1711252;82;21572;-45
2021/04/30 10:20:25;;;;;;;5.78;3.30;;;;;;;19.44;46.59;99967.77;1682618;84;21161;-46
2021/04/30 10:22:57;;;;;;;7.95;3.27;;;;;;;19.48;46.75;99958.81;1709745;82;21146;-45
2021/04/30 10:25:24;;;;;;;5.78;3.47;;;;;;;19.50;46.88;99960.35;1712778;82;21450;-44
2021/04/30 10:27:53;;;;;;;4.80;2.52;;;;;;;19.53;47.54;99946.54;1715276;82;21153;-48
2021/04/30 10:30:32;;;;;;;4.45;2.60;;;;;;;19.56;47.49;99952.97;1713663;82;21161;-49
2021/04/30 10:33:44;;;;;;;6.15;2.87;;;;;;;19.63;46.61;99947.75;1701852;82;21153;-48
2021/04/30 10:36:41;;;;;;;6.37;2.77;;;;;;;19.66;46.82;99944.23;1714952;82;21167;-45
2021/04/30 10:39:32;;;;;;;4.35;3.12;;;;;;;19.75;47.13;99949.20;1711282;82;22043;-45
2021/04/30 10:42:21;;;;;;;3.67;3.15;;;;;;;19.84;47.43;99944.69;1689496;82;21328;-49
2021/04/30 10:44:44;;;;;;;5.33;2.72;;;;;;;19.89;46.92;99941.83;1703243;82;21470;-47
2021/04/30 10:47:20;;;;;;;5.05;3.08;;;;;;;19.91;46.83;99945.74;1716729;82;21161;-47
2021/04/30 10:50:17;;;;;;;4.70;3.42;;;;;;;19.93;45.91;99942.34;1718316;82;21158;-46
2021/04/30 10:52:45;;;;;;;3.27;2.62;;;;;;;19.92;46.42;99933.05;1712187;82;21196;-44
2021/04/30 10:55:17;;;;;;;5.78;3.10;;;;;;;19.94;46.72;99921.06;1714127;82;21172;-50
2021/04/30 10:57:51;;;;;;;5.30;2.80;;;;;;;19.97;46.58;99923.95;1715119;82;21126;-47
2021/04/30 11:00:28;;;;;;;5.25;2.75;;;;;;;20.01;46.98;99927.52;1709215;82;21163;-49
2021/04/30 11:03:17;;;;;;;6.17;2.90;;;;;;;20.06;46.83;99926.52;1653124;85;21149;-50
2021/04/30 11:06:04;;;;;;;4.05;2.75;;;;;;;20.13;47.03;99927.20;1681655;84;21466;-46
2021/04/30 11:08:52;;;;;;;3.40;2.95;;;;;;;20.17;46.69;99917.23;1730753;80;21158;-48
2021/04/30 11:11:35;;;;;;;4.60;3.33;;;;;;;20.21;46.75;99915.03;1747659;80;21134;-51
2021/04/30 11:14:31;;;;;;;4.00;2.95;;;;;;;20.26;46.64;99902.72;1744507;80;21107;-45
2021/04/30 11:17:00;;;;;;;5.33;2.77;;;;;;;20.32;46.17;99899.84;1735596;81;21155;-43
2021/04/30 11:19:31;;;;;;;7.28;3.87;;;;;;;20.39;46.39;99901.39;1748183;80;21162;-45
2021/04/30 11:22:13;;;;;;;4.45;3.47;;;;;;;20.45;46.31;99898.84;1724995;81;21157;-44
2021/04/30 11:24:46;;;;;;;5.45;3.42;;;;;;;20.49;46.32;99899.38;1742869;80;21134;-44
2021/04/30 11:27:25;;;;;;;4.78;2.83;;;;;;;20.52;45.89;99901.23;1705032;82;21152;-44
2021/04/30 11:29:55;;;;;;;3.98;3.02;;;;;;;20.55;46.25;99900.59;1744592;80;21559;-44
2021/04/30 11:32:27;;;;;;;5.47;3.08;;;;;;;20.59;46.31;99900.57;1697207;80;21178;-46
2021/04/30 11:35:00;;;;;;;3.98;2.95;;;;;;;20.63;45.65;99901.42;1745277;80;21154;-47
2021/04/30 11:37:28;;;;;;;3.25;2.95;;;;;;;20.65;45.19;99899.40;1745656;80;21130;-44
2021/04/30 11:40:03;;;;;;;3.67;2.33;;;;;;;20.67;45.76;99899.24;1741601;80;21187;-46